San Francisco International Airport
KSFO : now visible

Airfield :











YOU CAN JOIN US ON...

 
LOGIN :

Register | Disclaimer

   EN    FR    IT 

 









Legend :    VFR   Marginal VFR   IFR   Intensive IFR   Very Intensive IFR
Visi :
Ceiling :
>= 8 km
>= 3000ft
5 to 8 km
1000 to 3000 ft
1500m to 5 km
500 to 1000 ft
800 to 1500m
200 to 500 ft
< 800m
< 200 ft
Symbols :   Thunderstorms  Fog  Heavy snow  Heavy precipitations  Wind > 20 kt






- Airport Elevation : 13 ft
- IATA code : SFO


KSFO - San Francisco International

CURRENT METAR :
  • 081456Z 23010KT 10SM OVC042 10/01 A3017 RMK AO2 SLP216 T01000011 53019

EXPIRED METARs :
  • 081356Z 22006KT 10SM BKN041 10/01 A3015 RMK AO2 SLP209 T01000011
  • 081256Z 25005KT 10SM BKN040 10/02 A3013 RMK AO2 SLP202 T01000022

TAF KSFO
Valid from the 08 at 12:00 until the 09 at 18:00 UTC


081139Z 0812/0918 27008KT P6SM BKN040
FM081600 24009KT P6SM FEW020 SCT060 BKN180
FM082100 25012KT P6SM SCT025 BKN050 BKN150
FM090300 23006KT P6SM VCSH OVC035
FM091100 21007KT 5SM -RA OVC025
FM091600 18006KT 5SM -RA OVC025
KZOA FIR / North America



MET'MAP, your aeronautical weather chart ! - Copyright ORBIFLY December 2007 - Disclaimer

ORBIFLY MET'MAP TEAM :

Programming & Development : Alexandra Zaïnal
Concept & original design : Baudouin d'Aumeries
Assistance for programming : Marc-Olivier Méhu
Technical & hardware support : Manuel Goepfert

Contact : metmap@orbifly.com




SOURCES & CREDITS :

   NOAA       Earth
Advisory